Time;durP1;ratioP1;P1;durP2;ratioP2;P2;SDS_P1;SDS_P2;PMS_P1;PMS_P2;Temp;Humidity;BMP_temperature;BMP_pressure;BME280_temperature;BME280_humidity;BME280_pressure;Samples;Min_cycle;Max_cycle;Signal;HPM_P1;HPM_P2
2023/12/25 00:01:20;;;;;;;;;;;10.30;99.90;;;;;;5104645;27;19938;-88
2023/12/25 00:03:46;;;;;;;;;;;10.30;99.90;;;;;;5102775;27;19923;-88
2023/12/25 00:06:12;;;;;;;;;;;10.30;99.90;;;;;;5103540;27;19927;-81
2023/12/25 00:08:38;;;;;;;;;;;10.20;99.90;;;;;;5102747;27;19927;-82
2023/12/25 00:11:04;;;;;;;;;;;10.20;99.90;;;;;;5107497;27;20130;-83
2023/12/25 00:13:29;;;;;;;;;;;10.20;99.90;;;;;;5103347;27;19946;-82
2023/12/25 00:15:55;;;;;;;;;;;10.20;99.90;;;;;;5103753;27;20262;-86
2023/12/25 00:18:20;;;;;;;;;;;10.20;99.90;;;;;;5093474;27;20278;-79
2023/12/25 00:20:46;;;;;;;;;;;10.30;99.90;;;;;;5107512;27;19980;-87
2023/12/25 00:23:11;;;;;;;;;;;10.30;99.90;;;;;;5103795;27;19928;-84
2023/12/25 00:25:37;;;;;;;;;;;10.30;99.90;;;;;;5100243;27;19935;-81
2023/12/25 00:28:03;;;;;;;;;;;10.30;99.90;;;;;;5090923;27;19931;-86
2023/12/25 00:30:28;;;;;;;;;;;10.30;99.90;;;;;;5101245;27;19931;-79
2023/12/25 00:32:54;;;;;;;;;;;10.30;99.90;;;;;;5105541;27;20042;-86
2023/12/25 00:35:20;;;;;;;;;;;10.30;99.90;;;;;;5087287;27;19966;-82
2023/12/25 00:37:45;;;;;;;;;;;10.30;99.90;;;;;;5090967;27;19923;-83
2023/12/25 00:40:11;;;;;;;;;;;10.30;99.90;;;;;;5124726;27;19927;-83
2023/12/25 00:42:36;;;;;;;;;;;10.20;99.90;;;;;;5102301;27;19931;-80
2023/12/25 00:45:02;;;;;;;;;;;10.20;99.90;;;;;;5113494;27;19986;-85
2023/12/25 00:47:28;;;;;;;;;;;10.20;99.90;;;;;;5104075;27;20426;-85
2023/12/25 00:49:53;;;;;;;;;;;10.30;99.90;;;;;;5106724;27;19931;-87
2023/12/25 00:52:19;;;;;;;;;;;10.30;99.90;;;;;;5107558;27;20016;-81
2023/12/25 00:54:46;;;;;;;;;;;10.30;99.90;;;;;;5094150;27;19931;-85
2023/12/25 00:57:11;;;;;;;;;;;10.30;99.90;;;;;;5105756;27;19972;-86
2023/12/25 00:59:37;;;;;;;;;;;10.30;99.90;;;;;;5100026;27;19970;-80
2023/12/25 01:02:03;;;;;;;;;;;10.40;99.90;;;;;;5108021;27;22441;-80
2023/12/25 01:04:28;;;;;;;;;;;10.40;99.90;;;;;;5101083;27;19927;-84
2023/12/25 01:06:54;;;;;;;;;;;10.50;99.90;;;;;;5077325;27;19934;-86
2023/12/25 01:09:20;;;;;;;;;;;10.50;99.90;;;;;;5083177;27;20395;-87
2023/12/25 01:11:45;;;;;;;;;;;10.50;99.90;;;;;;5103077;27;20250;-83
2023/12/25 01:14:11;;;;;;;;;;;10.50;99.90;;;;;;5105240;27;19985;-83
2023/12/25 01:16:37;;;;;;;;;;;10.50;99.90;;;;;;5088675;27;20516;-81
2023/12/25 01:19:02;;;;;;;;;;;10.40;99.90;;;;;;5100811;27;20030;-80
2023/12/25 01:21:28;;;;;;;;;;;10.40;99.90;;;;;;5102265;27;19928;-84
2023/12/25 01:23:54;;;;;;;;;;;10.40;99.90;;;;;;5122584;27;19934;-84
2023/12/25 01:26:20;;;;;;;;;;;10.40;99.90;;;;;;5108108;27;19927;-81
2023/12/25 01:28:45;;;;;;;;;;;10.40;99.90;;;;;;5103325;27;20054;-84
2023/12/25 01:31:11;;;;;;;;;;;10.40;99.90;;;;;;5103972;27;20296;-80
2023/12/25 01:33:36;;;;;;;;;;;10.40;99.90;;;;;;5125179;27;19927;-83
2023/12/25 01:36:02;;;;;;;;;;;10.40;99.90;;;;;;5121170;27;19931;-80
2023/12/25 01:38:28;;;;;;;;;;;10.40;99.90;;;;;;5100441;27;19927;-85
2023/12/25 01:40:54;;;;;;;;;;;10.40;99.90;;;;;;5099107;27;19924;-83
2023/12/25 01:43:19;;;;;;;;;;;10.40;99.90;;;;;;5106322;27;19927;-82
2023/12/25 01:45:45;;;;;;;;;;;10.40;99.90;;;;;;5103047;27;19982;-84
2023/12/25 01:48:13;;;;;;;;;;;10.30;99.90;;;;;;5101462;27;19936;-81
2023/12/25 01:50:39;;;;;;;;;;;10.30;99.90;;;;;;5093067;27;19926;-86
2023/12/25 01:53:05;;;;;;;;;;;10.30;99.90;;;;;;5093428;27;19932;-82
2023/12/25 01:55:30;;;;;;;;;;;10.20;99.90;;;;;;5090855;27;19927;-82
2023/12/25 01:57:57;;;;;;;;;;;10.20;99.90;;;;;;5068545;27;20049;-84
2023/12/25 02:00:23;;;;;;;;;;;10.10;99.90;;;;;;5107930;27;20014;-79
2023/12/25 02:02:49;;;;;;;;;;;10.00;99.90;;;;;;5094957;27;19929;-85
2023/12/25 02:05:15;;;;;;;;;;;10.00;99.90;;;;;;5087246;27;20293;-85
2023/12/25 02:07:42;;;;;;;;;;;9.90;99.90;;;;;;5091692;27;20281;-81
2023/12/25 02:10:08;;;;;;;;;;;9.90;99.90;;;;;;5106488;27;19926;-82
2023/12/25 02:12:34;;;;;;;;;;;9.90;99.90;;;;;;5101148;27;21912;-81
2023/12/25 02:15:00;;;;;;;;;;;9.90;99.90;;;;;;5105966;27;19931;-85
2023/12/25 02:17:25;;;;;;;;;;;9.90;99.90;;;;;;5103288;27;19938;-81
2023/12/25 02:19:51;;;;;;;;;;;9.90;99.90;;;;;;5093433;27;19927;-83
2023/12/25 02:22:17;;;;;;;;;;;9.90;99.90;;;;;;5090285;27;20016;-80
2023/12/25 02:25:00;;;;;;;;;;;9.90;99.90;;;;;;5109626;27;19939;-80
2023/12/25 02:27:25;;;;;;;;;;;9.90;99.90;;;;;;5088983;27;19931;-85
2023/12/25 02:29:51;;;;;;;;;;;9.90;99.90;;;;;;5120402;27;20051;-87
2023/12/25 02:32:16;;;;;;;;;;;9.90;99.90;;;;;;5103334;27;20450;-84
2023/12/25 02:34:44;;;;;;;;;;;9.90;99.90;;;;;;5101568;27;19934;-81
2023/12/25 02:37:10;;;;;;;;;;;10.00;99.90;;;;;;5106949;27;19927;-84
2023/12/25 02:39:35;;;;;;;;;;;10.00;99.90;;;;;;5105095;27;19923;-87
2023/12/25 02:42:01;;;;;;;;;;;10.00;99.90;;;;;;5099630;27;19924;-84
2023/12/25 02:44:27;;;;;;;;;;;10.00;99.90;;;;;;5103016;27;19927;-85
2023/12/25 02:46:52;;;;;;;;;;;10.10;99.90;;;;;;5107957;27;20848;-80
2023/12/25 02:49:18;;;;;;;;;;;10.10;99.90;;;;;;5102606;27;20002;-82
2023/12/25 02:51:43;;;;;;;;;;;10.10;99.90;;;;;;5099535;27;19976;-80
2023/12/25 02:54:09;;;;;;;;;;;10.10;99.90;;;;;;5089040;27;19923;-83
2023/12/25 02:56:35;;;;;;;;;;;10.00;99.90;;;;;;5091891;27;19927;-86
2023/12/25 02:59:00;;;;;;;;;;;10.10;99.90;;;;;;5102695;27;19938;-84
2023/12/25 03:01:26;;;;;;;;;;;10.10;99.90;;;;;;5120682;27;19927;-83
2023/12/25 03:03:53;;;;;;;;;;;10.20;99.90;;;;;;5099593;27;20340;-85
2023/12/25 03:06:19;;;;;;;;;;;10.20;99.90;;;;;;5103644;27;19927;-83
2023/12/25 03:08:44;;;;;;;;;;;10.10;99.90;;;;;;5086838;27;19930;-85
2023/12/25 03:11:10;;;;;;;;;;;10.10;99.90;;;;;;5105491;27;19927;-85
2023/12/25 03:13:36;;;;;;;;;;;10.20;99.90;;;;;;5080741;27;19939;-82
2023/12/25 03:16:05;;;;;;;;;;;10.20;99.90;;;;;;5098847;27;20650;-85
2023/12/25 03:18:31;;;;;;;;;;;10.20;99.90;;;;;;5100216;27;20377;-84
2023/12/25 03:20:57;;;;;;;;;;;10.20;99.90;;;;;;5120427;27;20052;-86
2023/12/25 03:23:22;;;;;;;;;;;10.10;99.90;;;;;;5090138;27;19934;-78
2023/12/25 03:25:48;;;;;;;;;;;10.10;99.90;;;;;;5106507;27;19978;-84
2023/12/25 03:28:14;;;;;;;;;;;10.00;99.90;;;;;;5106139;27;19927;-81
2023/12/25 03:30:39;;;;;;;;;;;10.00;99.90;;;;;;5093031;27;19933;-83
2023/12/25 03:33:07;;;;;;;;;;;9.90;99.90;;;;;;5128284;27;19985;-81
2023/12/25 03:35:33;;;;;;;;;;;9.90;99.90;;;;;;5114606;27;20356;-82
2023/12/25 03:38:02;;;;;;;;;;;9.90;99.90;;;;;;5129681;27;19927;-85
2023/12/25 03:40:27;;;;;;;;;;;9.90;99.90;;;;;;5090416;27;19934;-86
2023/12/25 03:42:54;;;;;;;;;;;9.90;99.90;;;;;;5109501;27;19927;-82
2023/12/25 03:45:20;;;;;;;;;;;9.90;99.90;;;;;;5105293;27;20005;-82
2023/12/25 03:47:45;;;;;;;;;;;10.00;99.90;;;;;;5106770;27;20603;-82
2023/12/25 03:50:11;;;;;;;;;;;9.90;99.90;;;;;;5105247;27;19930;-84
2023/12/25 03:52:37;;;;;;;;;;;9.90;99.90;;;;;;5107353;27;19934;-81
2023/12/25 03:55:03;;;;;;;;;;;9.90;99.90;;;;;;5105876;27;19928;-82
2023/12/25 03:57:28;;;;;;;;;;;10.00;99.90;;;;;;5125736;27;19948;-83
2023/12/25 03:59:54;;;;;;;;;;;10.00;99.90;;;;;;5122550;27;19981;-81
2023/12/25 04:02:20;;;;;;;;;;;10.00;99.90;;;;;;5110083;27;19982;-80
2023/12/25 04:04:47;;;;;;;;;;;10.00;99.90;;;;;;5107467;27;20040;-81
2023/12/25 04:07:14;;;;;;;;;;;10.00;99.90;;;;;;5096480;27;19938;-83
2023/12/25 04:09:41;;;;;;;;;;;10.00;99.90;;;;;;5115820;27;19931;-80
2023/12/25 04:12:06;;;;;;;;;;;9.90;99.90;;;;;;5098730;27;19931;-80
2023/12/25 04:14:35;;;;;;;;;;;9.90;99.90;;;;;;5125501;27;20528;-82
2023/12/25 04:17:01;;;;;;;;;;;10.00;99.90;;;;;;5102013;27;20323;-83
2023/12/25 04:19:26;;;;;;;;;;;10.00;99.90;;;;;;5105145;27;19923;-82
2023/12/25 04:21:52;;;;;;;;;;;10.00;99.90;;;;;;5087931;27;19927;-79
2023/12/25 04:24:18;;;;;;;;;;;10.00;99.90;;;;;;5103892;27;19934;-82
2023/12/25 04:26:43;;;;;;;;;;;10.10;99.90;;;;;;5107072;27;19928;-83
2023/12/25 04:29:09;;;;;;;;;;;10.10;99.90;;;;;;5109014;27;19922;-83
2023/12/25 04:31:35;;;;;;;;;;;10.10;99.90;;;;;;5109390;27;22077;-80
2023/12/25 04:34:00;;;;;;;;;;;10.10;99.90;;;;;;5107833;27;19954;-83
2023/12/25 04:36:26;;;;;;;;;;;10.10;99.90;;;;;;5106828;27;20311;-83
2023/12/25 04:38:52;;;;;;;;;;;10.10;99.90;;;;;;5094223;27;20392;-81
2023/12/25 04:41:21;;;;;;;;;;;10.20;99.90;;;;;;5103316;27;19995;-86
2023/12/25 04:43:47;;;;;;;;;;;10.10;99.90;;;;;;5094261;27;20350;-86
2023/12/25 04:46:13;;;;;;;;;;;10.10;99.90;;;;;;5105123;27;19927;-83
2023/12/25 04:48:38;;;;;;;;;;;10.10;99.90;;;;;;5076321;27;19934;-79
2023/12/25 04:51:04;;;;;;;;;;;10.10;99.90;;;;;;5111074;27;19931;-81
2023/12/25 04:53:31;;;;;;;;;;;10.10;99.90;;;;;;5103650;27;20882;-84
2023/12/25 04:55:57;;;;;;;;;;;10.00;99.90;;;;;;5103145;27;19928;-83
2023/12/25 04:58:23;;;;;;;;;;;10.00;99.90;;;;;;5089605;27;20409;-84
2023/12/25 05:00:48;;;;;;;;;;;10.00;99.90;;;;;;5105104;27;19927;-83
2023/12/25 05:03:14;;;;;;;;;;;9.90;99.90;;;;;;5097199;27;19976;-80
2023/12/25 05:05:39;;;;;;;;;;;9.90;99.90;;;;;;5104388;27;19992;-85
2023/12/25 05:08:05;;;;;;;;;;;9.90;99.90;;;;;;5104675;27;19981;-83
2023/12/25 05:10:32;;;;;;;;;;;9.90;99.90;;;;;;5090299;27;19934;-85
2023/12/25 05:12:58;;;;;;;;;;;9.80;99.90;;;;;;5095134;27;19931;-81
2023/12/25 05:15:23;;;;;;;;;;;9.80;99.90;;;;;;5106044;27;19947;-79
2023/12/25 05:17:49;;;;;;;;;;;9.80;99.90;;;;;;5093877;27;19953;-83
2023/12/25 05:20:15;;;;;;;;;;;9.80;99.90;;;;;;5089468;27;19928;-82
2023/12/25 05:22:40;;;;;;;;;;;9.80;99.90;;;;;;5088757;27;19927;-84
2023/12/25 05:25:06;;;;;;;;;;;9.80;99.90;;;;;;5099076;27;20312;-85
2023/12/25 05:27:32;;;;;;;;;;;9.80;99.90;;;;;;5096109;27;19970;-81
2023/12/25 05:29:59;;;;;;;;;;;9.80;99.90;;;;;;5110026;27;19927;-81
2023/12/25 05:32:24;;;;;;;;;;;9.80;99.90;;;;;;5090090;27;19923;-86
2023/12/25 05:34:50;;;;;;;;;;;9.70;99.90;;;;;;5103961;27;19937;-86
2023/12/25 05:37:15;;;;;;;;;;;9.70;99.90;;;;;;5094223;27;20353;-84
2023/12/25 05:39:41;;;;;;;;;;;9.70;99.90;;;;;;5090392;27;19927;-85
2023/12/25 05:42:07;;;;;;;;;;;9.70;99.90;;;;;;5107839;27;20490;-79
2023/12/25 05:44:33;;;;;;;;;;;9.70;99.90;;;;;;5097785;27;20003;-85
2023/12/25 05:46:59;;;;;;;;;;;9.70;99.90;;;;;;5100108;27;19974;-82
2023/12/25 05:49:24;;;;;;;;;;;9.70;99.90;;;;;;5106110;27;20030;-84
2023/12/25 05:51:50;;;;;;;;;;;9.70;99.90;;;;;;5089731;27;19935;-85
2023/12/25 05:54:16;;;;;;;;;;;9.70;99.90;;;;;;5099149;27;19969;-83
2023/12/25 05:56:41;;;;;;;;;;;9.70;99.90;;;;;;5103768;27;20333;-83
2023/12/25 05:59:07;;;;;;;;;;;9.70;99.90;;;;;;5097821;27;19935;-82
2023/12/25 06:01:33;;;;;;;;;;;9.70;99.90;;;;;;5090722;27;20653;-81
2023/12/25 06:04:00;;;;;;;;;;;9.70;99.90;;;;;;5104188;27;19976;-82
2023/12/25 06:06:26;;;;;;;;;;;9.70;99.90;;;;;;5102713;27;19963;-80
2023/12/25 06:08:51;;;;;;;;;;;9.60;99.90;;;;;;5100923;27;20459;-84
2023/12/25 06:11:17;;;;;;;;;;;9.60;99.90;;;;;;5106024;27;19928;-84
2023/12/25 06:13:43;;;;;;;;;;;9.60;99.90;;;;;;5084790;27;19963;-79
2023/12/25 06:16:09;;;;;;;;;;;9.60;99.90;;;;;;5078445;27;20649;-83
2023/12/25 06:18:34;;;;;;;;;;;9.60;99.90;;;;;;5092305;27;20076;-84
2023/12/25 06:21:00;;;;;;;;;;;9.60;99.90;;;;;;5106035;27;20297;-85
2023/12/25 06:23:26;;;;;;;;;;;9.60;99.90;;;;;;5123299;27;19983;-83
2023/12/25 06:25:51;;;;;;;;;;;9.60;99.90;;;;;;5100708;27;19931;-83
2023/12/25 06:28:17;;;;;;;;;;;9.60;99.90;;;;;;5102698;27;19931;-83
2023/12/25 06:30:43;;;;;;;;;;;9.50;99.90;;;;;;5105273;27;19934;-80
2023/12/25 06:33:09;;;;;;;;;;;9.50;99.90;;;;;;5102518;27;19931;-85
2023/12/25 06:35:35;;;;;;;;;;;9.50;99.90;;;;;;5106139;27;19988;-81
2023/12/25 06:38:00;;;;;;;;;;;9.50;99.90;;;;;;5113915;27;19931;-83
2023/12/25 06:40:26;;;;;;;;;;;9.50;99.90;;;;;;5108711;27;19931;-82
2023/12/25 06:42:52;;;;;;;;;;;9.50;99.90;;;;;;5092275;27;19927;-85
2023/12/25 06:45:17;;;;;;;;;;;9.50;99.90;;;;;;5107227;27;19923;-84
2023/12/25 06:47:43;;;;;;;;;;;9.50;99.90;;;;;;5108489;27;20117;-85
2023/12/25 06:50:09;;;;;;;;;;;8.80;99.90;;;;;;5107547;27;20407;-80
2023/12/25 06:52:34;;;;;;;;;;;9.40;99.90;;;;;;5086572;27;19984;-84
2023/12/25 06:55:01;;;;;;;;;;;9.40;99.90;;;;;;5103703;27;20409;-83
2023/12/25 06:57:26;;;;;;;;;;;9.40;99.90;;;;;;5097999;27;20001;-80
2023/12/25 06:59:52;;;;;;;;;;;9.40;99.90;;;;;;5118726;27;20014;-80
2023/12/25 07:02:17;;;;;;;;;;;9.40;99.90;;;;;;5104935;27;19927;-84
2023/12/25 07:04:43;;;;;;;;;;;9.40;99.90;;;;;;5122670;27;20021;-86
2023/12/25 07:07:09;;;;;;;;;;;9.40;99.90;;;;;;5097662;27;19935;-85
2023/12/25 07:09:35;;;;;;;;;;;9.30;99.90;;;;;;5100216;27;19963;-87
2023/12/25 07:12:03;;;;;;;;;;;9.30;99.90;;;;;;5102745;27;20069;-89
2023/12/25 07:14:28;;;;;;;;;;;9.30;99.90;;;;;;5078970;27;19994;-87
2023/12/25 07:16:54;;;;;;;;;;;9.30;99.90;;;;;;5097848;27;20232;-85
2023/12/25 07:19:20;;;;;;;;;;;9.30;99.90;;;;;;5088011;27;19927;-84
2023/12/25 07:21:45;;;;;;;;;;;9.30;99.90;;;;;;5101211;27;19984;-81
2023/12/25 07:24:11;;;;;;;;;;;9.30;99.90;;;;;;5090285;27;19935;-87
2023/12/25 07:26:37;;;;;;;;;;;9.30;99.90;;;;;;5084346;27;19962;-80
2023/12/25 07:29:02;;;;;;;;;;;9.30;99.90;;;;;;5102220;27;19927;-88
2023/12/25 07:31:28;;;;;;;;;;;9.30;99.90;;;;;;5085021;27;19949;-85
2023/12/25 07:33:54;;;;;;;;;;;9.30;99.90;;;;;;5084096;27;19958;-82
2023/12/25 07:36:19;;;;;;;;;;;9.30;99.90;;;;;;5090131;27;19931;-85
2023/12/25 07:38:45;;;;;;;;;;;9.30;99.90;;;;;;5120977;27;20348;-83
2023/12/25 07:41:11;;;;;;;;;;;9.40;99.90;;;;;;5096366;27;20358;-84
2023/12/25 07:43:40;;;;;;;;;;;9.30;99.90;;;;;;5123580;27;20420;-84
2023/12/25 07:46:07;;;;;;;;;;;9.30;99.90;;;;;;5108581;27;19948;-83
2023/12/25 07:48:33;;;;;;;;;;;9.30;99.90;;;;;;5123025;27;19939;-85
2023/12/25 07:50:58;;;;;;;;;;;9.30;99.90;;;;;;5126534;27;19927;-88
2023/12/25 07:53:24;;;;;;;;;;;9.30;99.90;;;;;;5109780;27;19934;-81
2023/12/25 07:55:49;;;;;;;;;;;9.30;99.90;;;;;;5094280;27;20356;-86
2023/12/25 07:58:15;;;;;;;;;;;9.30;99.90;;;;;;5109337;27;21879;-84
2023/12/25 08:00:44;;;;;;;;;;;9.30;99.90;;;;;;5100328;27;19954;-82
2023/12/25 08:03:12;;;;;;;;;;;9.20;99.90;;;;;;5080947;27;19927;-83
2023/12/25 08:05:38;;;;;;;;;;;9.20;99.90;;;;;;5108837;27;19926;-88
2023/12/25 08:08:07;;;;;;;;;;;9.20;99.90;;;;;;5106810;27;20264;-83
2023/12/25 08:10:33;;;;;;;;;;;9.30;99.90;;;;;;5104731;27;19931;-82
2023/12/25 08:13:02;;;;;;;;;;;9.30;99.90;;;;;;5111140;27;19927;-84
2023/12/25 08:15:28;;;;;;;;;;;9.30;99.90;;;;;;5104558;27;19924;-88
2023/12/25 08:17:54;;;;;;;;;;;9.20;99.90;;;;;;5103198;27;20496;-84
2023/12/25 08:20:19;;;;;;;;;;;9.20;99.90;;;;;;5105080;27;19923;-80
2023/12/25 08:22:51;;;;;;;;;;;9.20;99.90;;;;;;5104114;27;19938;-87
2023/12/25 08:25:16;;;;;;;;;;;9.10;99.90;;;;;;5108645;27;19927;-82
2023/12/25 08:27:42;;;;;;;;;;;9.10;99.90;;;;;;5099929;27;19931;-81
2023/12/25 08:30:08;;;;;;;;;;;9.10;99.90;;;;;;5108500;27;19963;-85
2023/12/25 08:32:33;;;;;;;;;;;9.00;99.90;;;;;;5088494;27;19939;-81
2023/12/25 08:34:59;;;;;;;;;;;9.00;99.90;;;;;;5109591;27;19931;-85
2023/12/25 08:37:25;;;;;;;;;;;9.00;99.90;;;;;;5109125;27;19966;-85
2023/12/25 08:39:50;;;;;;;;;;;8.90;99.90;;;;;;5089000;27;19935;-84
2023/12/25 08:42:16;;;;;;;;;;;8.90;99.90;;;;;;5100789;27;20453;-85
2023/12/25 08:44:48;;;;;;;;;;;8.90;99.90;;;;;;5113045;27;19930;-86
2023/12/25 08:47:14;;;;;;;;;;;8.90;99.90;;;;;;5106872;27;19939;-81
2023/12/25 08:49:40;;;;;;;;;;;8.90;99.90;;;;;;5087710;27;19934;-86
2023/12/25 08:52:06;;;;;;;;;;;8.90;99.90;;;;;;5124476;27;20313;-80
2023/12/25 08:54:37;;;;;;;;;;;8.80;99.90;;;;;;5099415;27;20679;-80
2023/12/25 08:57:04;;;;;;;;;;;8.70;99.90;;;;;;5122672;27;20289;-85
2023/12/25 08:59:29;;;;;;;;;;;8.90;99.90;;;;;;5094865;27;19938;-85
2023/12/25 09:01:55;;;;;;;;;;;8.90;99.90;;;;;;5102990;27;19986;-86
2023/12/25 09:04:20;;;;;;;;;;;8.90;99.90;;;;;;5110986;27;19928;-82
2023/12/25 09:06:46;;;;;;;;;;;8.90;99.90;;;;;;5096504;27;19931;-85
2023/12/25 09:09:12;;;;;;;;;;;8.90;99.90;;;;;;5098632;27;19927;-85
2023/12/25 09:11:38;;;;;;;;;;;8.90;99.90;;;;;;5091824;27;19928;-83
2023/12/25 09:14:03;;;;;;;;;;;9.00;99.90;;;;;;5104558;27;20005;-84
2023/12/25 09:16:29;;;;;;;;;;;9.00;99.90;;;;;;5092821;27;20707;-82
2023/12/25 09:18:55;;;;;;;;;;;9.00;99.90;;;;;;5096909;27;19924;-83
2023/12/25 09:21:21;;;;;;;;;;;9.10;99.90;;;;;;5101053;27;20259;-82
2023/12/25 09:23:47;;;;;;;;;;;9.00;99.90;;;;;;5084321;27;19975;-84
2023/12/25 09:26:19;;;;;;;;;;;9.10;99.90;;;;;;5100462;27;19931;-80
2023/12/25 09:28:45;;;;;;;;;;;9.10;99.90;;;;;;5100019;27;20005;-83
2023/12/25 09:31:11;;;;;;;;;;;9.10;99.90;;;;;;5114265;27;20050;-83
2023/12/25 09:33:37;;;;;;;;;;;9.10;99.90;;;;;;5109275;27;20374;-80
2023/12/25 09:36:03;;;;;;;;;;;9.10;99.90;;;;;;5119804;27;20220;-85
2023/12/25 09:38:28;;;;;;;;;;;9.20;99.90;;;;;;5113241;27;19928;-82
2023/12/25 09:40:55;;;;;;;;;;;9.20;99.90;;;;;;5113306;27;20356;-83
2023/12/25 09:43:21;;;;;;;;;;;9.20;99.90;;;;;;5112168;27;19931;-85
2023/12/25 09:45:48;;;;;;;;;;;9.20;99.90;;;;;;5085284;27;19967;-85
2023/12/25 09:48:14;;;;;;;;;;;9.30;99.90;;;;;;5108211;27;19954;-85
2023/12/25 09:50:40;;;;;;;;;;;9.30;99.90;;;;;;5113306;27;20314;-82
2023/12/25 09:53:06;;;;;;;;;;;9.40;99.90;;;;;;5100168;27;19927;-86
2023/12/25 09:55:31;;;;;;;;;;;9.40;99.90;;;;;;5097543;27;19924;-85
2023/12/25 09:57:59;;;;;;;;;;;9.40;99.90;;;;;;5128067;27;19928;-85
2023/12/25 10:00:25;;;;;;;;;;;9.90;99.90;;;;;;5108589;27;19938;-86
2023/12/25 10:02:51;;;;;;;;;;;9.50;99.90;;;;;;5102788;27;19927;-83
2023/12/25 10:05:18;;;;;;;;;;;9.50;99.90;;;;;;5114776;27;20301;-84
2023/12/25 10:07:44;;;;;;;;;;;9.50;99.90;;;;;;5102219;27;19950;-82
2023/12/25 10:10:10;;;;;;;;;;;9.50;99.90;;;;;;5098568;27;20370;-83
2023/12/25 10:12:35;;;;;;;;;;;9.50;99.90;;;;;;5103931;27;20475;-83
2023/12/25 10:15:04;;;;;;;;;;;9.50;99.90;;;;;;5104669;27;20381;-86
2023/12/25 10:17:29;;;;;;;;;;;9.50;99.90;;;;;;5104782;27;19931;-82
2023/12/25 10:19:55;;;;;;;;;;;9.50;99.90;;;;;;5090853;27;19934;-82
2023/12/25 10:22:29;;;;;;;;;;;9.50;99.90;;;;;;5100016;27;19934;-84
2023/12/25 10:24:55;;;;;;;;;;;9.50;99.90;;;;;;5120842;27;19983;-80
2023/12/25 10:27:21;;;;;;;;;;;9.50;99.90;;;;;;5096556;27;19927;-85
2023/12/25 10:29:47;;;;;;;;;;;9.50;99.90;;;;;;5111076;27;19927;-86
2023/12/25 10:32:17;;;;;;;;;;;9.60;99.90;;;;;;5107454;27;19924;-80
2023/12/25 10:34:43;;;;;;;;;;;9.60;99.90;;;;;;5104052;27;19924;-83
2023/12/25 10:37:09;;;;;;;;;;;9.60;99.90;;;;;;5127328;27;19927;-82
2023/12/25 10:39:35;;;;;;;;;;;9.60;99.90;;;;;;5109713;27;19927;-83
2023/12/25 10:42:01;;;;;;;;;;;9.60;99.90;;;;;;5105029;27;19932;-83
2023/12/25 10:44:28;;;;;;;;;;;9.60;99.90;;;;;;5126821;27;19927;-85
2023/12/25 10:46:54;;;;;;;;;;;9.60;99.90;;;;;;5094659;27;19927;-83
2023/12/25 10:49:25;;;;;;;;;;;9.60;99.90;;;;;;5099676;27;19927;-82
2023/12/25 10:51:51;;;;;;;;;;;9.50;99.90;;;;;;5090757;27;19942;-87
2023/12/25 10:54:18;;;;;;;;;;;9.50;99.90;;;;;;5100979;27;19930;-84
2023/12/25 10:56:46;;;;;;;;;;;9.50;99.90;;;;;;5110575;27;20027;-84
2023/12/25 10:59:25;;;;;;;;;;;9.40;99.90;;;;;;5105905;27;19998;-88
2023/12/25 11:01:51;;;;;;;;;;;9.40;99.90;;;;;;5104759;27;20593;-83
2023/12/25 11:04:20;;;;;;;;;;;9.40;99.90;;;;;;5100639;27;19931;-87
2023/12/25 11:06:46;;;;;;;;;;;9.40;99.90;;;;;;5076657;27;21095;-80
2023/12/25 11:09:12;;;;;;;;;;;9.10;99.90;;;;;;5103272;27;19979;-84
2023/12/25 11:11:41;;;;;;;;;;;9.30;99.90;;;;;;5093887;27;21222;-80
2023/12/25 11:14:07;;;;;;;;;;;9.30;99.90;;;;;;5098830;27;19935;-80
2023/12/25 11:16:33;;;;;;;;;;;9.30;99.90;;;;;;5090227;27;20050;-84
2023/12/25 11:19:00;;;;;;;;;;;9.30;99.90;;;;;;5090537;27;19923;-84
2023/12/25 11:21:29;;;;;;;;;;;9.30;99.90;;;;;;5092730;27;19947;-81
2023/12/25 11:23:56;;;;;;;;;;;9.30;99.90;;;;;;5103986;27;20268;-80
2023/12/25 11:26:27;;;;;;;;;;;9.30;99.90;;;;;;5109412;27;20267;-84
2023/12/25 11:29:10;;;;;;;;;;;9.30;99.90;;;;;;5106324;27;19927;-82
2023/12/25 11:31:44;;;;;;;;;;;9.30;99.90;;;;;;5109214;27;20553;-79
2023/12/25 11:34:32;;;;;;;;;;;9.30;99.90;;;;;;5098316;27;19975;-84
2023/12/25 11:36:58;;;;;;;;;;;9.30;99.90;;;;;;5093480;27;19927;-86
2023/12/25 11:39:27;;;;;;;;;;;9.30;99.90;;;;;;5098524;27;20348;-80
2023/12/25 11:41:53;;;;;;;;;;;9.30;99.90;;;;;;5092791;27;19934;-85
2023/12/25 11:44:28;;;;;;;;;;;9.40;99.90;;;;;;5105250;27;19924;-87
2023/12/25 11:46:57;;;;;;;;;;;9.40;99.90;;;;;;5101126;27;19931;-80
2023/12/25 11:49:26;;;;;;;;;;;9.40;99.90;;;;;;5106011;27;19928;-84
2023/12/25 11:51:52;;;;;;;;;;;9.50;99.90;;;;;;5096930;27;20042;-80
2023/12/25 11:54:17;;;;;;;;;;;9.60;99.90;;;;;;5102041;27;20614;-85
2023/12/25 11:56:43;;;;;;;;;;;9.60;99.90;;;;;;5106184;27;20286;-83
2023/12/25 11:59:09;;;;;;;;;;;9.60;99.90;;;;;;5102899;27;19969;-85
2023/12/25 12:01:35;;;;;;;;;;;9.50;99.90;;;;;;5115912;27;19979;-81
2023/12/25 12:04:02;;;;;;;;;;;9.50;99.90;;;;;;5106394;27;19934;-83
2023/12/25 12:06:28;;;;;;;;;;;9.60;99.90;;;;;;5103440;27;19935;-86
2023/12/25 12:08:54;;;;;;;;;;;9.50;99.90;;;;;;5102949;27;19928;-86
2023/12/25 12:11:20;;;;;;;;;;;9.50;99.90;;;;;;5110162;27;20049;-81
2023/12/25 12:13:50;;;;;;;;;;;9.50;99.90;;;;;;5087512;27;19927;-86
2023/12/25 12:16:16;;;;;;;;;;;9.50;99.90;;;;;;5114287;27;19973;-84
2023/12/25 12:18:41;;;;;;;;;;;9.40;99.90;;;;;;5103738;27;20203;-87
2023/12/25 12:21:07;;;;;;;;;;;9.50;99.90;;;;;;5106182;27;19973;-81
2023/12/25 12:23:33;;;;;;;;;;;9.50;99.90;;;;;;5088753;27;19935;-87
2023/12/25 12:25:59;;;;;;;;;;;9.40;99.90;;;;;;5111046;27;19927;-84
2023/12/25 12:28:26;;;;;;;;;;;9.40;99.90;;;;;;5110691;27;19966;-85
2023/12/25 12:30:51;;;;;;;;;;;9.40;99.90;;;;;;5078115;27;20297;-88
2023/12/25 12:33:17;;;;;;;;;;;9.40;99.90;;;;;;5105104;27;19931;-83
2023/12/25 12:35:45;;;;;;;;;;;9.50;99.90;;;;;;5105193;27;19927;-83
2023/12/25 12:38:14;;;;;;;;;;;9.50;99.90;;;;;;5100328;27;19934;-83
2023/12/25 12:40:40;;;;;;;;;;;9.50;99.90;;;;;;5083976;27;19923;-83
2023/12/25 12:43:05;;;;;;;;;;;9.50;99.90;;;;;;5109655;27;20270;-84
2023/12/25 12:45:31;;;;;;;;;;;9.50;99.90;;;;;;5091157;27;19931;-84
2023/12/25 12:47:56;;;;;;;;;;;9.50;99.90;;;;;;5102759;27;19931;-85
2023/12/25 12:50:22;;;;;;;;;;;9.50;99.90;;;;;;5079244;27;20349;-81
2023/12/25 12:52:48;;;;;;;;;;;9.50;99.90;;;;;;5095731;27;20375;-83
2023/12/25 12:55:14;;;;;;;;;;;9.50;99.90;;;;;;5110886;27;19988;-86
2023/12/25 12:57:40;;;;;;;;;;;9.40;99.90;;;;;;5104366;27;21092;-88
2023/12/25 13:00:06;;;;;;;;;;;9.40;99.90;;;;;;5107193;27;19927;-86
2023/12/25 13:02:31;;;;;;;;;;;9.40;99.90;;;;;;5090636;27;20392;-85
2023/12/25 13:04:57;;;;;;;;;;;9.40;99.90;;;;;;5100783;27;19977;-82
2023/12/25 13:07:23;;;;;;;;;;;9.40;99.90;;;;;;5120092;27;21815;-82
2023/12/25 13:09:48;;;;;;;;;;;9.30;99.90;;;;;;5101840;27;19935;-82
2023/12/25 13:12:14;;;;;;;;;;;9.30;99.90;;;;;;5120700;27;20044;-86
2023/12/25 13:14:39;;;;;;;;;;;9.30;99.90;;;;;;5101103;27;19923;-80
2023/12/25 13:17:05;;;;;;;;;;;9.30;99.90;;;;;;5088983;27;20396;-84
2023/12/25 13:19:31;;;;;;;;;;;9.30;99.90;;;;;;5094162;27;19938;-84
2023/12/25 13:21:56;;;;;;;;;;;9.30;99.90;;;;;;5125106;27;19923;-80
2023/12/25 13:24:22;;;;;;;;;;;9.40;99.90;;;;;;5103954;27;20412;-81
2023/12/25 13:26:48;;;;;;;;;;;9.40;99.90;;;;;;5076085;27;19932;-88
2023/12/25 13:29:13;;;;;;;;;;;9.40;99.90;;;;;;5104069;27;19926;-86
2023/12/25 13:31:39;;;;;;;;;;;9.40;99.90;;;;;;5095346;27;19927;-85
2023/12/25 13:34:05;;;;;;;;;;;9.40;99.90;;;;;;5092895;27;19934;-84
2023/12/25 13:36:31;;;;;;;;;;;9.40;99.90;;;;;;5108913;27;19939;-80
2023/12/25 13:38:56;;;;;;;;;;;9.40;99.90;;;;;;5101588;27;20461;-87
2023/12/25 13:41:25;;;;;;;;;;;9.40;99.90;;;;;;5088207;27;19934;-82
2023/12/25 13:43:52;;;;;;;;;;;9.40;99.90;;;;;;5097208;27;19947;-84
2023/12/25 13:46:18;;;;;;;;;;;9.40;99.90;;;;;;5092809;27;20438;-81
2023/12/25 13:48:45;;;;;;;;;;;9.40;99.90;;;;;;5079225;27;19931;-81
2023/12/25 13:51:10;;;;;;;;;;;9.30;99.90;;;;;;5088991;27;20313;-86
2023/12/25 13:53:36;;;;;;;;;;;9.30;99.90;;;;;;5107361;27;19930;-81
2023/12/25 13:56:03;;;;;;;;;;;9.30;99.90;;;;;;5086083;27;19973;-83
2023/12/25 13:58:29;;;;;;;;;;;9.30;99.90;;;;;;5099436;27;19931;-85
2023/12/25 14:00:54;;;;;;;;;;;9.30;99.90;;;;;;5096435;27;19980;-83
2023/12/25 14:03:20;;;;;;;;;;;9.30;99.90;;;;;;5107483;27;19942;-83
2023/12/25 14:05:46;;;;;;;;;;;9.30;99.90;;;;;;5094672;27;19923;-84
2023/12/25 14:08:11;;;;;;;;;;;9.30;99.90;;;;;;5089800;27;19938;-81
2023/12/25 14:10:37;;;;;;;;;;;9.30;99.90;;;;;;5090044;27;19979;-80
2023/12/25 14:13:04;;;;;;;;;;;9.30;99.90;;;;;;5113975;27;20683;-86
2023/12/25 14:15:29;;;;;;;;;;;9.30;99.90;;;;;;5101099;27;19931;-88
2023/12/25 14:17:55;;;;;;;;;;;9.30;99.90;;;;;;5108222;27;19957;-83
2023/12/25 14:20:21;;;;;;;;;;;9.30;99.90;;;;;;5098381;27;21723;-86